Elkhart, Kansas
Current Conditions -  °F | °C
As of 8:53 AM on Thursday 18 Dec 2014 (Local Time) from KGUY Reporting Station
Overcast Overcast  
Wind Chill: 27°   Ceiling: 700
Heat Index: 34°   Visibility: 10mi
Dew Point: 31°   Wind: 9mph
Humidity: 89%   Direction: 330°NNW
Pressure: 30.11"   Gusts: NA
Location:  37.01°N, 101.89°W
Report Text: KGUY 181453Z AUTO 33008KT 10SM OVC007 01/M01 A3011 RMK AO2 SLP199 T00111006 53012
Loading
Personal Weather Stations






























Interactive Weather Map New forecast layout! Learn more

10-Day Weather Forecast

Advertisements
Track Severe Weather on mobile